Observation data for Snyder on 01/19/2019      Previous  Date  Next       Current Mesonet Observations  Soil Data  Daily Summary Page  Observations in Plain Language
KSYS 190600Z 33027G33KT 05/M02 A2998 RMK A01 T00471017  RH  064%=      5-min Rain = 0
KSYS 190605Z 33029G39KT 05/M02 A2999 RMK A01 T00461018  RH  064%=      5-min Rain = 0
KSYS 190610Z 33032G40KT 05/M02 A2999 RMK A01 T00451020  RH  063%=      5-min Rain = 0
KSYS 190615Z 33027G34KT 05/M02 A2999 RMK A01 T00451019  RH  063%=      5-min Rain = 0
KSYS 190620Z 33026G33KT 05/M02 A30 RMK A01 T00451020  RH  063%=      5-min Rain = 0
KSYS 190625Z 33026G33KT 04/M02 A30 RMK A01 T00441020  RH  063%=      5-min Rain = 0
KSYS 190630Z 33030G38KT 04/M02 A30 RMK A01 T00441020  RH  064%=      5-min Rain = 0
KSYS 190635Z 33029G36KT 04/M02 A30 RMK A01 T00431019  RH  065%=      5-min Rain = 0
KSYS 190640Z 33025G33KT 04/M02 A3001 RMK A01 T00421017  RH  066%=      5-min Rain = 0
KSYS 190645Z 33028G34KT 04/M02 A3001 RMK A01 T00411017  RH  066%=      5-min Rain = 0
KSYS 190650Z 33025G30KT 04/M01 A3002 RMK A01 T00401014  RH  069%=      5-min Rain = 0
KSYS 190655Z 32024G29KT 04/M01 A3002 RMK A01 T00381011  RH  071%=      5-min Rain = 0
KSYS 190700Z 32026G32KT 03/M00 A3002 RMK A01 T00331003  RH  078%=      5-min Rain = 0
KSYS 190705Z 32026G33KT 03/01 A3003 RMK A01 T00250005  RH  087%=      5-min Rain = 0
KSYS 190710Z 32023KT 02/01 A3004 RMK A01 T00200006  RH  092%=      5-min Rain = 0
KSYS 190715Z 32022G28KT 02/01 A3004 RMK A01 T00170007  RH  094%=      5-min Rain = 0
KSYS 190720Z 32020G25KT 02/01 A3004 RMK A01 T00160007  RH  095%=      5-min Rain = 0
KSYS 190725Z 32022G30KT 02/01 A3004 RMK A01 T00170007  RH  094%=      5-min Rain = 0
KSYS 190730Z 33022G27KT 02/01 A3004 RMK A01 T00180006  RH  093%=      5-min Rain = 0
KSYS 190735Z 33022G28KT 02/01 A3004 RMK A01 T00200006  RH  091%=      5-min Rain = 0
KSYS 190740Z 32022G27KT 02/01 A3005 RMK A01 T00200006  RH  092%=      5-min Rain = 0
KSYS 190745Z 32025G31KT 02/01 A3005 RMK A01 T00180006  RH  093%=      5-min Rain = 0
KSYS 190750Z 33026G34KT 02/01 A3006 RMK A01 T00150006  RH  095%=      5-min Rain = 0
KSYS 190755Z 33028G35KT 01/00 A3006 RMK A01 T00120004  RH  095%=      5-min Rain = 0
KSYS 190800Z 34023G31KT 01/00 A3007 RMK A01 T00090002  RH  096%=      5-min Rain = 0
KSYS 190805Z 34021G29KT 01/00 A3008 RMK A01 T00080002  RH  097%=      5-min Rain = 0
KSYS 190810Z 34018KT 01/00 A3009 RMK A01 T00070003  RH  098%=      5-min Rain = 0
KSYS 190815Z 34016G23KT 01/00 A3009 RMK A01 T00080004  RH  098%=      5-min Rain = 0
KSYS 190820Z 33016G22KT 01/01 A3009 RMK A01 T00090005  RH  099%=      5-min Rain = 0
KSYS 190825Z 33016G22KT 01/01 A3009 RMK A01 T00090006  RH  099%=      5-min Rain = 0
KSYS 190830Z 33015KT 01/01 A3009 RMK A01 T00100006  RH  098%=      5-min Rain = 0
KSYS 190835Z 33015KT 01/01 A3009 RMK A01 T00110005  RH  097%=      5-min Rain = 0
KSYS 190840Z 33013KT 01/01 A301 RMK A01 T00110005  RH  097%=      5-min Rain = 0
KSYS 190845Z 32014KT 01/01 A301 RMK A01 T00120005  RH  096%=      5-min Rain = 0
KSYS 190850Z 32013KT 01/01 A301 RMK A01 T00140005  RH  095%=      5-min Rain = 0
KSYS 190855Z 32013KT 02/00 A301 RMK A01 T00150004  RH  093%=      5-min Rain = 0
KSYS 190900Z 32012KT 02/00 A301 RMK A01 T00160004  RH  093%=      5-min Rain = 0
KSYS 190905Z 32012KT 02/00 A301 RMK A01 T00170004  RH  092%=      5-min Rain = 0
KSYS 190910Z 32014KT 02/00 A301 RMK A01 T00180004  RH  091%=      5-min Rain = 0
KSYS 190915Z 32014KT 02/00 A301 RMK A01 T00200004  RH  090%=      5-min Rain = 0
KSYS 190920Z 31013KT 02/00 A301 RMK A01 T00200004  RH  090%=      5-min Rain = 0
KSYS 190925Z 32014KT 02/00 A301 RMK A01 T00210004  RH  090%=      5-min Rain = 0
KSYS 190930Z 32014KT 02/00 A301 RMK A01 T00210003  RH  089%=      5-min Rain = 0
KSYS 190935Z 32015KT 02/00 A301 RMK A01 T00210003  RH  089%=      5-min Rain = 0
KSYS 190940Z 32013KT 02/00 A301 RMK A01 T00220003  RH  088%=      5-min Rain = 0
KSYS 190945Z 32014KT 02/00 A301 RMK A01 T00220003  RH  089%=      5-min Rain = 0
KSYS 190950Z 32014KT 02/00 A3011 RMK A01 T00220004  RH  089%=      5-min Rain = 0
KSYS 190955Z 31014KT 02/00 A3011 RMK A01 T00220004  RH  088%=      5-min Rain = 0
KSYS 191000Z 31013KT 02/00 A3011 RMK A01 T00220004  RH  089%=      5-min Rain = 0
KSYS 191005Z 31014G19KT 02/00 A3011 RMK A01 T00220003  RH  088%=      5-min Rain = 0
KSYS 191010Z 32014G19KT 02/00 A3011 RMK A01 T00220001  RH  087%=      5-min Rain = 0
KSYS 191015Z 32019G24KT 02/M00 A3011 RMK A01 T00221003  RH  085%=      5-min Rain = 0
KSYS 191020Z 32015KT 02/M01 A3011 RMK A01 T00211005  RH  084%=      5-min Rain = 0
KSYS 191025Z 32015KT 02/M01 A3011 RMK A01 T00201006  RH  084%=      5-min Rain = 0
KSYS 191030Z 32015KT 02/M01 A3012 RMK A01 T00181007  RH  084%=      5-min Rain = 0
KSYS 191035Z 32016KT 02/M01 A3012 RMK A01 T00171008  RH  085%=      5-min Rain = 0
KSYS 191040Z 32017KT 02/M01 A3012 RMK A01 T00171009  RH  084%=      5-min Rain = 0
KSYS 191045Z 32017KT 02/M01 A3012 RMK A01 T00161011  RH  083%=      5-min Rain = 0
KSYS 191050Z 32017KT 02/M01 A3013 RMK A01 T00151012  RH  083%=      5-min Rain = 0
KSYS 191055Z 32018G24KT 01/M01 A3013 RMK A01 T00141013  RH  083%=      5-min Rain = 0
KSYS 191100Z 33021G27KT 01/M01 A3013 RMK A01 T00141014  RH  083%=      5-min Rain = 0
KSYS 191105Z 32022G28KT 01/M02 A3013 RMK A01 T00141017  RH  080%=      5-min Rain = 0
KSYS 191110Z 33021G28KT 01/M02 A3014 RMK A01 T00141019  RH  079%=      5-min Rain = 0
KSYS 191115Z 32018KT 01/M02 A3014 RMK A01 T00131018  RH  080%=      5-min Rain = 0
KSYS 191120Z 32020KT 01/M02 A3015 RMK A01 T00121018  RH  081%=      5-min Rain = 0
KSYS 191125Z 32019G24KT 01/M02 A3015 RMK A01 T00111019  RH  081%=      5-min Rain = 0
KSYS 191130Z 33021KT 01/M02 A3015 RMK A01 T00101021  RH  080%=      5-min Rain = 0
KSYS 191135Z 33023G30KT 01/M02 A3015 RMK A01 T00101023  RH  079%=      5-min Rain = 0
KSYS 191140Z 33022G29KT 01/M03 A3015 RMK A01 T00101025  RH  078%=      5-min Rain = 0
KSYS 191145Z 33021G27KT 01/M03 A3016 RMK A01 T00091026  RH  078%=      5-min Rain = 0
KSYS 191150Z 33022KT 01/M03 A3016 RMK A01 T00091028  RH  077%=      5-min Rain = 0
KSYS 191155Z 33020KT 01/M03 A3016 RMK A01 T00081027  RH  078%=      5-min Rain = 0
KSYS 191200Z 33019G25KT 01/M03 A3016 RMK A01 T00071026  RH  079%=      5-min Rain = 0
KSYS 191205Z 33022G28KT 01/M03 A3017 RMK A01 T00061027  RH  079%=      5-min Rain = 0
KSYS 191210Z 33023G29KT 01/M03 A3017 RMK A01 T00071028  RH  078%=      5-min Rain = 0
KSYS 191215Z 33024G31KT 01/M03 A3017 RMK A01 T00071029  RH  077%=      5-min Rain = 0
KSYS 191220Z 34023G31KT 01/M03 A3017 RMK A01 T00071030  RH  077%=      5-min Rain = 0
KSYS 191225Z 33020G26KT 01/M03 A3017 RMK A01 T00071031  RH  076%=      5-min Rain = 0
KSYS 191230Z 33020G25KT 01/M03 A3017 RMK A01 T00071031  RH  076%=      5-min Rain = 0
KSYS 191235Z 33021G26KT 01/M03 A3017 RMK A01 T00061029  RH  078%=      5-min Rain = 0
KSYS 191240Z 33023G29KT 01/M03 A3017 RMK A01 T00061031  RH  077%=      5-min Rain = 0
KSYS 191245Z 34021G27KT 01/M03 A3018 RMK A01 T00061032  RH  076%=      5-min Rain = 0
KSYS 191250Z 34021G26KT 01/M03 A3018 RMK A01 T00061033  RH  076%=      5-min Rain = 0
KSYS 191255Z 33019G26KT 00/M03 A3018 RMK A01 T00041032  RH  077%=      5-min Rain = 0
KSYS 191300Z 33019G25KT 00/M03 A3019 RMK A01 T00031031  RH  078%=      5-min Rain = 0
KSYS 191305Z 34021G28KT 00/M03 A3019 RMK A01 T00021032  RH  078%=      5-min Rain = 0
KSYS 191310Z 34020G25KT 00/M03 A3019 RMK A01 T00011032  RH  079%=      5-min Rain = 0
KSYS 191315Z 34019G25KT 00/03 A302 RMK A01 T00000-32  RH  079%=      5-min Rain = 0
KSYS 191320Z 34018G23KT M00/M03 A302 RMK A01 T10011032  RH  080%=      5-min Rain = 0
KSYS 191325Z 33018G23KT M00/M03 A3021 RMK A01 T10021032  RH  080%=      5-min Rain = 0
KSYS 191330Z 33018KT M00/M03 A3021 RMK A01 T10011033  RH  080%=      5-min Rain = 0
KSYS 191335Z 33018G24KT M00/M03 A3022 RMK A01 T10011033  RH  079%=      5-min Rain = 0
KSYS 191340Z 33015KT M00/M03 A3022 RMK A01 T10011033  RH  080%=      5-min Rain = 0
KSYS 191345Z 33013G18KT M00/M03 A3023 RMK A01 T10021033  RH  080%=      5-min Rain = 0
KSYS 191350Z 33012KT M00/M03 A3023 RMK A01 T10031033  RH  080%=      5-min Rain = 0
KSYS 191355Z 33012KT M00/M03 A3023 RMK A01 T10031033  RH  081%=      5-min Rain = 0
KSYS 191400Z 33012KT M00/M03 A3024 RMK A01 T10031033  RH  081%=      5-min Rain = 0
KSYS 191405Z 33011KT M00/M03 A3024 RMK A01 T10041033  RH  081%=      5-min Rain = 0
KSYS 191410Z 32011KT M00/M03 A3024 RMK A01 T10031033  RH  081%=      5-min Rain = 0
KSYS 191415Z 33012KT M00/M03 A3024 RMK A01 T10011032  RH  080%=      5-min Rain = 0
KSYS 191420Z 32012KT 00/03 A3025 RMK A01 T00000-31  RH  080%=      5-min Rain = 0
KSYS 191425Z 32012KT 00/M03 A3025 RMK A01 T00021031  RH  079%=      5-min Rain = 0
KSYS 191430Z 32014KT 00/M03 A3026 RMK A01 T00041030  RH  079%=      5-min Rain = 0
KSYS 191435Z 32015KT 01/M03 A3026 RMK A01 T00061029  RH  078%=      5-min Rain = 0
KSYS 191440Z 32015KT 01/M03 A3026 RMK A01 T00071029  RH  077%=      5-min Rain = 0
KSYS 191445Z 32016KT 01/M03 A3026 RMK A01 T00091028  RH  077%=      5-min Rain = 0
KSYS 191450Z 32017KT 01/M03 A3027 RMK A01 T00111027  RH  076%=      5-min Rain = 0
KSYS 191455Z 32017KT 01/M03 A3027 RMK A01 T00131027  RH  075%=      5-min Rain = 0
KSYS 191500Z 32018G23KT 02/M03 A3027 RMK A01 T00151027  RH  074%=      5-min Rain = 0
KSYS 191505Z 32017G23KT 02/M03 A3028 RMK A01 T00171027  RH  073%=      5-min Rain = 0
KSYS 191510Z 32018G25KT 02/M03 A3028 RMK A01 T00191026  RH  073%=      5-min Rain = 0
KSYS 191515Z 32018G26KT 02/M03 A3028 RMK A01 T00201027  RH  072%=      5-min Rain = 0
KSYS 191520Z 32018G23KT 02/M03 A3029 RMK A01 T00221026  RH  071%=      5-min Rain = 0
KSYS 191525Z 33018KT 02/M03 A3029 RMK A01 T00241026  RH  070%=      5-min Rain = 0
KSYS 191530Z 33019G25KT 03/M03 A303 RMK A01 T00261026  RH  069%=      5-min Rain = 0
KSYS 191535Z 33020G28KT 03/M03 A303 RMK A01 T00281026  RH  068%=      5-min Rain = 0
KSYS 191540Z 33019G27KT 03/M03 A303 RMK A01 T00291027  RH  067%=      5-min Rain = 0
KSYS 191545Z 33019G24KT 03/M03 A303 RMK A01 T00311028  RH  066%=      5-min Rain = 0
KSYS 191550Z 33022G28KT 03/M03 A303 RMK A01 T00331029  RH  064%=      5-min Rain = 0
KSYS 191555Z 34020G26KT 03/M03 A3031 RMK A01 T00331031  RH  063%=      5-min Rain = 0
KSYS 191600Z 34020G28KT 04/M03 A3031 RMK A01 T00361029  RH  063%=      5-min Rain = 0
KSYS 191605Z 34020G27KT 04/M03 A3031 RMK A01 T00371033  RH  061%=      5-min Rain = 0
KSYS 191610Z 33020KT 04/M03 A3032 RMK A01 T00401030  RH  061%=      5-min Rain = 0
KSYS 191615Z 33023G30KT 04/M03 A3032 RMK A01 T00401032  RH  060%=      5-min Rain = 0
KSYS 191620Z 34019G25KT 04/M03 A3032 RMK A01 T00411030  RH  060%=      5-min Rain = 0
KSYS 191625Z 34019G25KT 05/M03 A3032 RMK A01 T00451031  RH  058%=      5-min Rain = 0
KSYS 191630Z 34020G26KT 05/M03 A3032 RMK A01 T00451033  RH  058%=      5-min Rain = 0
KSYS 191635Z 34019G27KT 05/M03 A3032 RMK A01 T00461033  RH  057%=      5-min Rain = 0
KSYS 191640Z 34021G27KT 05/M03 A3032 RMK A01 T00471032  RH  057%=      5-min Rain = 0
KSYS 191645Z 34023G30KT 05/M03 A3031 RMK A01 T00471032  RH  057%=      5-min Rain = 0
KSYS 191650Z 34020G27KT 05/M03 A3032 RMK A01 T00481031  RH  057%=      5-min Rain = 0
KSYS 191655Z 33021G26KT 05/M03 A3031 RMK A01 T00501030  RH  057%=      5-min Rain = 0
KSYS 191700Z 33019G25KT 05/M03 A3032 RMK A01 T00511028  RH  057%=      5-min Rain = 0
KSYS 191705Z 33018G24KT 05/M03 A3032 RMK A01 T00541028  RH  056%=      5-min Rain = 0
KSYS 191710Z 33018G24KT 06/M03 A3032 RMK A01 T00551027  RH  056%=      5-min Rain = 0
KSYS 191715Z 34018G26KT 06/M03 A3032 RMK A01 T00571027  RH  055%=      5-min Rain = 0
KSYS 191720Z 34020G28KT 06/M03 A3032 RMK A01 T00571029  RH  054%=      5-min Rain = 0
KSYS 191725Z 34021G27KT 06/M03 A3031 RMK A01 T00561029  RH  055%=      5-min Rain = 0
KSYS 191730Z 34020G26KT 06/M03 A3031 RMK A01 T00571028  RH  055%=      5-min Rain = 0
KSYS 191735Z 34018G23KT 06/M03 A3031 RMK A01 T00601026  RH  054%=      5-min Rain = 0
KSYS 191740Z 34016G23KT 06/M03 A3031 RMK A01 T00641025  RH  053%=      5-min Rain = 0
KSYS 191745Z 34017G24KT 06/M03 A3031 RMK A01 T00621026  RH  054%=      5-min Rain = 0
KSYS 191750Z 34019G25KT 07/M03 A3031 RMK A01 T00651026  RH  053%=      5-min Rain = 0
KSYS 191755Z 35018KT 07/M03 A3032 RMK A01 T00661025  RH  052%=      5-min Rain = 0
KSYS 191800Z 35019G25KT 07/M03 A3031 RMK A01 T00671027  RH  052%=      5-min Rain = 0
KSYS 191805Z 34017G23KT 07/M02 A3031 RMK A01 T00681024  RH  052%=      5-min Rain = 0
KSYS 191810Z 34017G22KT 07/M02 A3031 RMK A01 T00711024  RH  051%=      5-min Rain = 0
KSYS 191815Z 34017G24KT 07/M02 A303 RMK A01 T00741024  RH  050%=      5-min Rain = 0
KSYS 191820Z 34017G23KT 07/M03 A303 RMK A01 T00731025  RH  050%=      5-min Rain = 0
KSYS 191825Z 34016G24KT 08/M02 A303 RMK A01 T00751024  RH  050%=      5-min Rain = 0
KSYS 191830Z 33016G21KT 08/M02 A303 RMK A01 T00781022  RH  049%=      5-min Rain = 0
KSYS 191835Z 33018G23KT 08/M02 A303 RMK A01 T00781023  RH  049%=      5-min Rain = 0
KSYS 191840Z 34019G24KT 08/M03 A3029 RMK A01 T00781025  RH  048%=      5-min Rain = 0
KSYS 191845Z 34016G25KT 08/M02 A3029 RMK A01 T00811023  RH  048%=      5-min Rain = 0
KSYS 191850Z 34016G23KT 09/M02 A3029 RMK A01 T00871021  RH  047%=      5-min Rain = 0
KSYS 191855Z 34018G25KT 09/M03 A3029 RMK A01 T00861026  RH  046%=      5-min Rain = 0
KSYS 191900Z 34018G24KT 09/M02 A3029 RMK A01 T00861024  RH  046%=      5-min Rain = 0
KSYS 191905Z 33017G23KT 09/M02 A3028 RMK A01 T00871024  RH  046%=      5-min Rain = 0
KSYS 191910Z 33017KT 09/M02 A3028 RMK A01 T00881023  RH  046%=      5-min Rain = 0
KSYS 191915Z 34018G24KT 09/M03 A3028 RMK A01 T00891025  RH  045%=      5-min Rain = 0
KSYS 191920Z 34015KT 09/M03 A3028 RMK A01 T00911025  RH  044%=      5-min Rain = 0
KSYS 191925Z 33017G24KT 09/M02 A3028 RMK A01 T00911023  RH  045%=      5-min Rain = 0
KSYS 191930Z 33016G21KT 10/M02 A3027 RMK A01 T00951023  RH  044%=      5-min Rain = 0
KSYS 191935Z 34019G25KT 10/M03 A3027 RMK A01 T00971026  RH  042%=      5-min Rain = 0
KSYS 191940Z 34019G25KT 10/M03 A3027 RMK A01 T01001026  RH  042%=      5-min Rain = 0
KSYS 191945Z 33018G23KT 10/M03 A3026 RMK A01 T01001026  RH  042%=      5-min Rain = 0
KSYS 191950Z 33018KT 10/M03 A3026 RMK A01 T00991025  RH  042%=      5-min Rain = 0
KSYS 191955Z 33019G27KT 10/M03 A3026 RMK A01 T01021025  RH  041%=      5-min Rain = 0
KSYS 192000Z 33019G24KT 10/M03 A3027 RMK A01 T01021026  RH  041%=      5-min Rain = 0
KSYS 192005Z 33021G26KT 10/M03 A3027 RMK A01 T01041026  RH  040%=      5-min Rain = 0
KSYS 192010Z 33018G25KT 11/M03 A3027 RMK A01 T01051025  RH  040%=      5-min Rain = 0
KSYS 192015Z 34021G28KT 11/M03 A3026 RMK A01 T01051027  RH  040%=      5-min Rain = 0
KSYS 192020Z 33018KT 11/M03 A3026 RMK A01 T01071026  RH  039%=      5-min Rain = 0
KSYS 192025Z 34020KT 11/M03 A3026 RMK A01 T01081026  RH  039%=      5-min Rain = 0
KSYS 192030Z 34018G25KT 11/M03 A3026 RMK A01 T01081026  RH  039%=      5-min Rain = 0
KSYS 192035Z 32018G26KT 11/M03 A3026 RMK A01 T01091026  RH  039%=      5-min Rain = 0
KSYS 192040Z 33019G25KT 11/M03 A3025 RMK A01 T01111025  RH  039%=      5-min Rain = 0
KSYS 192045Z 33019G25KT 11/M03 A3025 RMK A01 T01131025  RH  038%=      5-min Rain = 0
KSYS 192050Z 33018G23KT 11/M03 A3025 RMK A01 T01141025  RH  038%=      5-min Rain = 0
KSYS 192055Z 33019G28KT 11/M03 A3024 RMK A01 T01141026  RH  038%=      5-min Rain = 0
KSYS 192100Z 33018G23KT 12/M03 A3024 RMK A01 T01161026  RH  037%=      5-min Rain = 0
KSYS 192105Z 33018G23KT 12/M03 A3024 RMK A01 T01171026  RH  037%=      5-min Rain = 0
KSYS 192110Z 33019G24KT 12/M03 A3024 RMK A01 T01171028  RH  037%=      5-min Rain = 0
KSYS 192115Z 33018KT 12/M03 A3024 RMK A01 T01181026  RH  037%=      5-min Rain = 0
KSYS 192120Z 33017KT 12/M03 A3024 RMK A01 T01181027  RH  036%=      5-min Rain = 0
KSYS 192125Z 33018G26KT 12/M03 A3024 RMK A01 T01191028  RH  036%=      5-min Rain = 0
KSYS 192130Z 32019G24KT 12/M03 A3024 RMK A01 T01191028  RH  036%=      5-min Rain = 0
KSYS 192135Z 32021G26KT 12/M03 A3024 RMK A01 T01201032  RH  035%=      5-min Rain = 0
KSYS 192140Z 33020G25KT 12/M03 A3024 RMK A01 T01201031  RH  035%=      5-min Rain = 0
KSYS 192145Z 33020G25KT 12/M03 A3024 RMK A01 T01181032  RH  035%=      5-min Rain = 0
KSYS 192150Z 33021G28KT 12/M03 A3024 RMK A01 T01191034  RH  034%=      5-min Rain = 0
KSYS 192155Z 33019G25KT 12/M03 A3025 RMK A01 T01201033  RH  034%=      5-min Rain = 0
KSYS 192200Z 34021G28KT 12/M03 A3024 RMK A01 T01191033  RH  035%=      5-min Rain = 0
KSYS 192205Z 33017G22KT 12/M03 A3024 RMK A01 T01191031  RH  035%=      5-min Rain = 0
KSYS 192210Z 34016G21KT 12/M03 A3024 RMK A01 T01201031  RH  035%=      5-min Rain = 0
KSYS 192215Z 35017G25KT 12/M03 A3024 RMK A01 T01191031  RH  035%=      5-min Rain = 0
KSYS 192220Z 34016G22KT 12/M03 A3024 RMK A01 T01181032  RH  035%=      5-min Rain = 0
KSYS 192225Z 34016G22KT 12/M03 A3025 RMK A01 T01191033  RH  035%=      5-min Rain = 0
KSYS 192230Z 34016G22KT 12/M03 A3025 RMK A01 T01191034  RH  034%=      5-min Rain = 0
KSYS 192235Z 34016G21KT 12/M04 A3025 RMK A01 T01191035  RH  034%=      5-min Rain = 0
KSYS 192240Z 35015G23KT 12/M04 A3025 RMK A01 T01171035  RH  034%=      5-min Rain = 0
KSYS 192245Z 35015KT 12/M03 A3025 RMK A01 T01161034  RH  035%=      5-min Rain = 0
KSYS 192250Z 34017G23KT 12/M04 A3025 RMK A01 T01161035  RH  035%=      5-min Rain = 0
KSYS 192255Z 33015KT 12/M04 A3025 RMK A01 T01151036  RH  035%=      5-min Rain = 0
KSYS 192300Z 34015KT 12/M04 A3025 RMK A01 T01151036  RH  035%=      5-min Rain = 0
KSYS 192305Z 34013G18KT 11/M04 A3025 RMK A01 T01141036  RH  035%=      5-min Rain = 0
KSYS 192310Z 35014KT 11/M04 A3026 RMK A01 T01131037  RH  035%=      5-min Rain = 0
KSYS 192315Z 35013G19KT 11/M04 A3026 RMK A01 T01121037  RH  035%=      5-min Rain = 0
KSYS 192320Z 35012G17KT 11/M04 A3025 RMK A01 T01111037  RH  035%=      5-min Rain = 0
KSYS 192325Z 34013G18KT 11/M04 A3025 RMK A01 T01091038  RH  036%=      5-min Rain = 0
KSYS 192330Z 34013KT 11/M04 A3025 RMK A01 T01081038  RH  036%=      5-min Rain = 0
KSYS 192335Z 35012KT 11/M04 A3026 RMK A01 T01061038  RH  036%=      5-min Rain = 0
KSYS 192340Z 35013KT 11/M04 A3026 RMK A01 T01051040  RH  036%=      5-min Rain = 0
KSYS 192345Z 35012KT 10/M04 A3025 RMK A01 T01031039  RH  037%=      5-min Rain = 0
KSYS 192350Z 35010KT 10/M04 A3025 RMK A01 T01001038  RH  038%=      5-min Rain = 0
KSYS 192355Z 36011KT 10/M04 A3025 RMK A01 T00981037  RH  039%=      5-min Rain = 0
KSYS 200000Z 35009KT 10/M04 A3025 RMK A01 T00961036  RH  040%=      5-min Rain = 0
KSYS 200005Z 36010KT 09/M04 A3025 RMK A01 T00921036  RH  040%=      5-min Rain = 0
KSYS 200010Z 00008KT 09/M04 A3025 RMK A01 T00891035  RH  042%=      5-min Rain = 0
KSYS 200015Z 00007KT 09/M03 A3026 RMK A01 T00851034  RH  043%=      5-min Rain = 0
KSYS 200020Z 01007KT 08/M03 A3026 RMK A01 T00801034  RH  045%=      5-min Rain = 0
KSYS 200025Z 02007KT 08/M04 A3026 RMK A01 T00781036  RH  045%=      5-min Rain = 0
KSYS 200030Z 02007KT 08/M04 A3026 RMK A01 T00771036  RH  045%=      5-min Rain = 0
KSYS 200035Z 02008KT 08/M04 A3027 RMK A01 T00771037  RH  045%=      5-min Rain = 0
KSYS 200040Z 03008KT 07/M04 A3027 RMK A01 T00741038  RH  045%=      5-min Rain = 0
KSYS 200045Z 04009KT 07/M04 A3027 RMK A01 T00701037  RH  047%=      5-min Rain = 0
KSYS 200050Z 04008KT 07/M04 A3027 RMK A01 T00671036  RH  048%=      5-min Rain = 0
KSYS 200055Z 04008KT 06/M04 A3027 RMK A01 T00641036  RH  049%=      5-min Rain = 0
KSYS 200100Z 04008KT 06/M04 A3027 RMK A01 T00611035  RH  051%=      5-min Rain = 0
KSYS 200105Z 04009KT 06/M03 A3027 RMK A01 T00591034  RH  051%=      5-min Rain = 0
KSYS 200110Z 05009KT 06/M03 A3027 RMK A01 T00571034  RH  052%=      5-min Rain = 0
KSYS 200115Z 05009KT 06/M03 A3028 RMK A01 T00561033  RH  053%=      5-min Rain = 0
KSYS 200120Z 05009KT 06/M03 A3028 RMK A01 T00551032  RH  054%=      5-min Rain = 0
KSYS 200125Z 05008KT 05/M03 A3028 RMK A01 T00531032  RH  055%=      5-min Rain = 0
KSYS 200130Z 05009KT 05/M03 A3028 RMK A01 T00511032  RH  055%=      5-min Rain = 0
KSYS 200135Z 05009KT 05/M03 A3028 RMK A01 T00511032  RH  055%=      5-min Rain = 0
KSYS 200140Z 05009KT 05/M03 A3028 RMK A01 T00511032  RH  055%=      5-min Rain = 0
KSYS 200145Z 04009KT 05/M03 A3028 RMK A01 T00511032  RH  055%=      5-min Rain = 0
KSYS 200150Z 04009KT 05/M03 A3029 RMK A01 T00501033  RH  056%=      5-min Rain = 0
KSYS 200155Z 04010KT 05/M04 A3029 RMK A01 T00481035  RH  055%=      5-min Rain = 0
KSYS 200200Z 05010KT 05/M04 A3029 RMK A01 T00481035  RH  055%=      5-min Rain = 0
KSYS 200205Z 05009KT 05/M03 A3029 RMK A01 T00471034  RH  056%=      5-min Rain = 0
KSYS 200210Z 05009KT 05/M03 A303 RMK A01 T00471034  RH  056%=      5-min Rain = 0
KSYS 200215Z 04009KT 05/M03 A303 RMK A01 T00451034  RH  057%=      5-min Rain = 0
KSYS 200220Z 04009KT 04/M04 A3029 RMK A01 T00441035  RH  057%=      5-min Rain = 0
KSYS 200225Z 05008KT 04/M03 A3029 RMK A01 T00441034  RH  057%=      5-min Rain = 0
KSYS 200230Z 05008KT 04/M03 A3028 RMK A01 T00431033  RH  058%=      5-min Rain = 0
KSYS 200235Z 06009KT 04/M03 A3028 RMK A01 T00401033  RH  059%=      5-min Rain = 0
KSYS 200240Z 06008KT 04/M03 A3028 RMK A01 T00401033  RH  059%=      5-min Rain = 0
KSYS 200245Z 05009KT 04/M03 A3027 RMK A01 T00391033  RH  060%=      5-min Rain = 0
KSYS 200250Z 05009KT 04/M03 A3027 RMK A01 T00381033  RH  060%=      5-min Rain = 0
KSYS 200255Z 05010KT 04/M03 A3028 RMK A01 T00371033  RH  061%=      5-min Rain = 0
KSYS 200300Z 06010KT 04/M03 A3028 RMK A01 T00351033  RH  061%=      5-min Rain = 0
KSYS 200305Z 06010KT 04/M03 A3028 RMK A01 T00361033  RH  061%=      5-min Rain = 0
KSYS 200310Z 05009KT 04/M03 A3028 RMK A01 T00351033  RH  061%=      5-min Rain = 0
KSYS 200315Z 04010KT 03/M03 A3029 RMK A01 T00341034  RH  061%=      5-min Rain = 0
KSYS 200320Z 05010KT 04/M03 A3029 RMK A01 T00351034  RH  061%=      5-min Rain = 0
KSYS 200325Z 05010KT 04/M03 A3028 RMK A01 T00361034  RH  061%=      5-min Rain = 0
KSYS 200330Z 05011KT 03/M03 A3029 RMK A01 T00341033  RH  062%=      5-min Rain = 0
KSYS 200335Z 05011KT 03/M03 A303 RMK A01 T00341033  RH  062%=      5-min Rain = 0
KSYS 200340Z 05009KT 03/M03 A303 RMK A01 T00341033  RH  062%=      5-min Rain = 0
KSYS 200345Z 05009KT 03/M03 A303 RMK A01 T00321033  RH  063%=      5-min Rain = 0
KSYS 200350Z 06009KT 03/M03 A303 RMK A01 T00311033  RH  063%=      5-min Rain = 0
KSYS 200355Z 06008KT 03/M03 A303 RMK A01 T00301033  RH  064%=      5-min Rain = 0
KSYS 200400Z 07007KT 03/M03 A303 RMK A01 T00301033  RH  064%=      5-min Rain = 0
KSYS 200405Z 06008KT 03/M03 A303 RMK A01 T00311033  RH  063%=      5-min Rain = 0
KSYS 200410Z 06007KT 03/M03 A3029 RMK A01 T00301034  RH  063%=      5-min Rain = 0
KSYS 200415Z 07007KT 03/M03 A303 RMK A01 T00301034  RH  063%=      5-min Rain = 0
KSYS 200420Z 06007KT 03/M03 A303 RMK A01 T00301034  RH  063%=      5-min Rain = 0
KSYS 200425Z 06007KT 03/M04 A3031 RMK A01 T00291035  RH  063%=      5-min Rain = 0
KSYS 200430Z 07008KT 03/M04 A303 RMK A01 T00271036  RH  063%=      5-min Rain = 0
KSYS 200435Z 08008KT 03/M04 A3029 RMK A01 T00261036  RH  064%=      5-min Rain = 0
KSYS 200440Z 09007KT 02/M04 A3029 RMK A01 T00231035  RH  066%=      5-min Rain = 0
KSYS 200445Z 08007KT 02/M04 A3029 RMK A01 T00191036  RH  068%=      5-min Rain = 0
KSYS 200450Z 08008KT 02/M04 A3029 RMK A01 T00171036  RH  068%=      5-min Rain = 0
KSYS 200455Z 08009KT 02/M04 A3029 RMK A01 T00191035  RH  068%=      5-min Rain = 0
KSYS 200500Z 08009KT 02/M03 A3029 RMK A01 T00201034  RH  068%=      5-min Rain = 0
KSYS 200505Z 08010KT 02/M04 A3029 RMK A01 T00191038  RH  066%=      5-min Rain = 0
KSYS 200510Z 08010KT 02/M04 A303 RMK A01 T00161042  RH  066%=      5-min Rain = 0
KSYS 200515Z 09008G13KT 01/M05 A303 RMK A01 T00131045  RH  066%=      5-min Rain = 0
KSYS 200520Z 09008KT 01/M05 A303 RMK A01 T00101048  RH  065%=      5-min Rain = 0
KSYS 200525Z 09008KT 01/M05 A303 RMK A01 T00081049  RH  066%=      5-min Rain = 0
KSYS 200530Z 09009KT 01/M05 A303 RMK A01 T00061049  RH  067%=      5-min Rain = 0
KSYS 200535Z 09006KT 00/M05 A303 RMK A01 T00031050  RH  068%=      5-min Rain = 0
KSYS 200540Z 11005KT 00/M05 A303 RMK A01 T00011051  RH  068%=      5-min Rain = 0
KSYS 200545Z 14005KT M00/M05 A3032 RMK A01 T10021051  RH  069%=      5-min Rain = 0
KSYS 200550Z 13006KT M00/M05 A3032 RMK A01 T10021050  RH  070%=      5-min Rain = 0
KSYS 200555Z 11008KT M00/M05 A3032 RMK A01 T10021051  RH  070%=      5-min Rain = 0

Page generated in 0.0099 seconds.